Peleus — V2FV2 — position and weather

sailwx.info

Track history (hours):
 
Tides and Currents Weather Stations Pressure Air Temp Water Temp Dewpoint Dewpoint Depression Visibility Wind Speed Wind Dir Waves Ship Positions

Peleus

Last reported at 2016-May-03 02:33 UTC. Time now 2016-May-03 03:02 UTC.
Position N 36°18' E 014°21'.

Length 88 m; draft 5.3 m.

Type: Cargo ship. MMSI: 305810000.

Date/timePositionNaut miles runAvg speedWind from/ knotsBaromVisibWave heightAir tempDewpointWater temp
2016-May-03 02:33N 36°18' E 014°21'9 9.0
2016-May-03 01:33N 36°21' E 014°11'9 9.1
2016-May-03 00:33N 36°25' E 014°01'9 9.1
2016-May-02 23:33N 36°28' E 013°50'  
2016-Apr-28 14:34N 35°54' W 005°19'1 0.6
2016-Apr-28 13:33N 35°54' W 005°19'0 0.0
2016-Apr-28 12:33N 35°54' W 005°19'0 0.0
2016-Apr-28 11:33N 35°54' W 005°19'0 0.0
2016-Apr-28 10:33N 35°54' W 005°19'2 1.6
2016-Apr-28 09:33N 35°55' W 005°19'4 4.2
2016-Apr-28 08:34N 35°57' W 005°23'223 8.9
2016-Apr-27 07:31N 37°18' W 009°43'10 9.5
2016-Apr-27 06:31N 37°27' W 009°46'61 9.8
2016-Apr-27 00:16N 38°27' W 010°03'7 9.9
2016-Apr-26 23:33N 38°34' W 010°05'11 9.9
2016-Apr-26 22:27N 38°45' W 010°07'910.1
2016-Apr-26 21:31N 38°55' W 010°08'1010.1
2016-Apr-26 20:29N 39°05' W 010°07'10 9.7
2016-Apr-26 19:25N 39°15' W 010°08'10 9.9
2016-Apr-26 18:24N 39°25' W 010°08'  
2016-Apr-23 14:28N 49°45' W 003°34'1011.1
2016-Apr-23 13:33N 49°50' W 003°21'1111.2
2016-Apr-23 12:33N 49°56' W 003°06'1010.4
2016-Apr-23 11:34N 50°00' W 002°51'  
Track history (hours):
 
Tides and Currents Weather Stations Pressure Air Temp Water Temp Dewpoint Dewpoint Depression Visibility Wind Speed Wind Dir Waves Ship Positions

Peleus

Last reported at 2016-May-03 02:33 UTC. Time now 2016-May-03 03:02 UTC.
Position N 36°18' E 014°21'.

Length 88 m; draft 5.3 m.

Type: Cargo ship. MMSI: 305810000.

Date/timePositionNaut miles runAvg speedWind from/ knotsBaromVisibWave heightAir tempDewpointWater temp
2016-May-03 02:33N 36°18' E 014°21'9 9.0
2016-May-03 01:33N 36°21' E 014°11'9 9.1
2016-May-03 00:33N 36°25' E 014°01'9 9.1
2016-May-02 23:33N 36°28' E 013°50'  
2016-Apr-28 14:34N 35°54' W 005°19'1 0.6
2016-Apr-28 13:33N 35°54' W 005°19'0 0.0
2016-Apr-28 12:33N 35°54' W 005°19'0 0.0
2016-Apr-28 11:33N 35°54' W 005°19'0 0.0
2016-Apr-28 10:33N 35°54' W 005°19'2 1.6
2016-Apr-28 09:33N 35°55' W 005°19'4 4.2
2016-Apr-28 08:34N 35°57' W 005°23'223 8.9
2016-Apr-27 07:31N 37°18' W 009°43'10 9.5
2016-Apr-27 06:31N 37°27' W 009°46'61 9.8
2016-Apr-27 00:16N 38°27' W 010°03'7 9.9
2016-Apr-26 23:33N 38°34' W 010°05'11 9.9
2016-Apr-26 22:27N 38°45' W 010°07'910.1
2016-Apr-26 21:31N 38°55' W 010°08'1010.1
2016-Apr-26 20:29N 39°05' W 010°07'10 9.7
2016-Apr-26 19:25N 39°15' W 010°08'10 9.9
2016-Apr-26 18:24N 39°25' W 010°08'  
2016-Apr-23 14:28N 49°45' W 003°34'1011.1
2016-Apr-23 13:33N 49°50' W 003°21'1111.2
2016-Apr-23 12:33N 49°56' W 003°06'1010.4
2016-Apr-23 11:34N 50°00' W 002°51'  

Dump ship's entire track history